Terminal Aerodrome Forecast
Issued by NWS Cleveland, OH

Home | Current Version | Previous Version | Graphics & Text | Print | Product List | Glossary On
Versions: 1 2 3 4 5 6 7 8 9 10 11 12 13 14 15 16 17 18 19
000
FTUS41 KCLE 250849 AAA
TAFYNG
TAF AMD
KYNG 250849Z 2509/2606 12012KT P6SM -SHRA SCT007 OVC012
      TEMPO 2509/2513 4SM -RA BR BKN007 OVC012
     FM251600 17008KT 6SM -SHRA SCT019 OVC020
     FM260000 25004KT 6SM -SHRA OVC007=

USA.gov is the U.S. government's official web portal to all federal, state and local government web resources and services.